Time;durP1;ratioP1;P1;durP2;ratioP2;P2;SDS_P1;SDS_P2;PMS_P1;PMS_P2;Temp;Humidity;BMP_temperature;BMP_pressure;BME280_temperature;BME280_humidity;BME280_pressure;Samples;Min_cycle;Max_cycle;Signal;HPM_P1;HPM_P2
2022/11/01 00:01:32;;;;;;;22.33;12.43;;;13.50;99.90;;;;;;5074135;28;20445;-62
2022/11/01 00:03:59;;;;;;;17.27;10.80;;;13.50;99.90;;;;;;5073758;28;20480;-62
2022/11/01 00:06:28;;;;;;;17.20;11.50;;;13.50;99.90;;;;;;5074316;28;20478;-63
2022/11/01 00:08:55;;;;;;;14.67;11.10;;;13.60;99.90;;;;;;5073933;28;20454;-62
2022/11/01 00:11:22;;;;;;;16.60;10.90;;;13.50;99.90;;;;;;5073676;28;21009;-62
2022/11/01 00:13:50;;;;;;;11.17;10.03;;;13.50;99.90;;;;;;5074166;28;20472;-63
2022/11/01 00:16:20;;;;;;;13.23;10.60;;;13.50;99.90;;;;;;5074233;28;20454;-62
2022/11/01 00:18:47;;;;;;;18.30;10.70;;;13.60;99.90;;;;;;5074268;28;20448;-63
2022/11/01 00:21:15;;;;;;;10.70;9.30;;;13.60;99.90;;;;;;5073127;28;20451;-63
2022/11/01 00:23:43;;;;;;;11.47;10.10;;;13.60;99.90;;;;;;5074042;28;20471;-62
2022/11/01 00:26:15;;;;;;;13.30;9.50;;;13.60;99.90;;;;;;5074046;28;20448;-62
2022/11/01 00:28:42;;;;;;;15.80;10.63;;;13.60;99.90;;;;;;5073658;28;20443;-63
2022/11/01 00:31:09;;;;;;;12.47;9.87;;;13.60;99.90;;;;;;5073666;28;20502;-63
2022/11/01 00:33:39;;;;;;;17.93;8.97;;;13.60;99.90;;;;;;5073823;28;20480;-62
2022/11/01 00:36:07;;;;;;;13.27;9.97;;;13.60;99.90;;;;;;5073673;28;20506;-62
2022/11/01 00:38:34;;;;;;;20.10;10.43;;;13.60;99.90;;;;;;5074015;28;20454;-62
2022/11/01 00:41:02;;;;;;;13.80;8.77;;;13.60;99.90;;;;;;5073668;28;20451;-62
2022/11/01 00:43:30;;;;;;;14.07;8.90;;;13.60;99.90;;;;;;5073607;28;20500;-62
2022/11/01 00:45:57;;;;;;;13.37;10.00;;;13.70;99.90;;;;;;5073505;28;20448;-63
2022/11/01 00:48:25;;;;;;;14.97;10.43;;;13.70;99.90;;;;;;5073219;28;20977;-63
2022/11/01 00:50:54;;;;;;;12.47;9.87;;;13.70;99.90;;;;;;5073415;28;20476;-63
2022/11/01 00:53:21;;;;;;;13.03;9.77;;;13.60;99.90;;;;;;5073221;28;20468;-63
2022/11/01 00:55:48;;;;;;;11.87;8.30;;;13.60;99.90;;;;;;5073502;28;20456;-62
2022/11/01 00:58:16;;;;;;;15.77;8.37;;;13.60;99.90;;;;;;5073191;28;20454;-62
2022/11/01 01:00:43;;;;;;;18.00;10.23;;;13.60;99.90;;;;;;5073663;28;20440;-62
2022/11/01 01:03:10;;;;;;;9.27;8.43;;;13.60;99.90;;;;;;5073370;28;20992;-63
2022/11/01 01:05:37;;;;;;;12.00;8.33;;;13.70;99.90;;;;;;5073016;28;20519;-63
2022/11/01 01:08:06;;;;;;;10.87;8.67;;;13.70;99.90;;;;;;5073090;28;20950;-62
2022/11/01 01:10:33;;;;;;;11.60;9.30;;;13.60;99.90;;;;;;5073378;28;20486;-63
2022/11/01 01:13:00;;;;;;;9.00;7.80;;;13.70;99.90;;;;;;5073129;28;20476;-63
2022/11/01 01:15:27;;;;;;;11.87;8.63;;;13.70;99.90;;;;;;5072960;28;20450;-62
2022/11/01 01:17:54;;;;;;;12.60;9.00;;;13.70;99.90;;;;;;5073308;28;20946;-62
2022/11/01 01:20:22;;;;;;;16.63;9.70;;;13.60;99.90;;;;;;5072943;28;20440;-62
2022/11/01 01:22:49;;;;;;;13.33;8.93;;;13.60;99.90;;;;;;5073134;28;20502;-63
2022/11/01 01:25:19;;;;;;;12.80;8.33;;;13.60;99.90;;;;;;5073284;28;20459;-63
2022/11/01 01:27:46;;;;;;;15.23;9.13;;;13.60;99.90;;;;;;5072950;28;20520;-63
2022/11/01 01:30:14;;;;;;;10.80;8.33;;;13.70;99.90;;;;;;5072733;28;20479;-63
2022/11/01 01:32:42;;;;;;;13.73;8.57;;;13.70;99.90;;;;;;5075151;28;20848;-63
2022/11/01 01:35:09;;;;;;;11.67;8.50;;;13.80;99.90;;;;;;5076992;28;20448;-63
2022/11/01 01:37:37;;;;;;;15.67;7.83;;;13.70;99.90;;;;;;5076774;28;20939;-63
2022/11/01 01:40:05;;;;;;;13.70;8.63;;;13.70;99.90;;;;;;5076813;28;20446;-64
2022/11/01 01:42:35;;;;;;;10.53;8.20;;;13.70;99.90;;;;;;5076659;28;20510;-63
2022/11/01 01:45:31;;;;;;;10.20;7.77;;;13.70;99.90;;;;;;5076933;28;20448;-63
2022/11/01 01:48:06;;;;;;;11.20;8.47;;;13.60;99.90;;;;;;5076874;28;20503;-62
2022/11/01 01:50:39;;;;;;;10.83;8.37;;;13.60;99.90;;;;;;5076471;28;20468;-62
2022/11/01 01:53:10;;;;;;;13.83;8.80;;;13.70;99.90;;;;;;5076769;28;20468;-62
2022/11/01 01:55:42;;;;;;;13.27;9.30;;;13.70;99.90;;;;;;5076941;28;20428;-62
2022/11/01 01:58:13;;;;;;;10.00;8.37;;;13.70;99.90;;;;;;5076762;28;20432;-63
2022/11/01 02:00:43;;;;;;;12.40;8.80;;;13.70;99.90;;;;;;5076359;28;20429;-63
2022/11/01 02:03:11;;;;;;;12.33;8.70;;;13.80;99.90;;;;;;5076239;28;20476;-63
2022/11/01 02:05:44;;;;;;;15.20;9.37;;;13.70;99.90;;;;;;5076590;28;20439;-63
2022/11/01 02:08:12;;;;;;;9.00;7.83;;;13.80;99.90;;;;;;5076519;28;20436;-63
2022/11/01 02:10:40;;;;;;;11.50;8.40;;;13.80;99.90;;;;;;5076326;28;20571;-63
2022/11/01 02:13:14;;;;;;;13.90;8.13;;;13.80;99.90;;;;;;5076134;28;20979;-63
2022/11/01 02:15:50;;;;;;;12.17;7.33;;;13.80;99.90;;;;;;5076220;28;20982;-63
2022/11/01 02:18:24;;;;;;;9.23;7.87;;;13.80;99.90;;;;;;5076373;28;20483;-63
2022/11/01 02:21:31;;;;;;;11.23;7.83;;;13.80;99.90;;;;;;5076338;28;20786;-63
2022/11/01 02:24:27;;;;;;;11.80;7.70;;;13.90;99.90;;;;;;5075405;28;20464;-62
2022/11/01 02:27:15;;;;;;;10.43;7.50;;;13.90;99.90;;;;;;5075945;28;20436;-62
2022/11/01 02:30:04;;;;;;;8.43;7.20;;;14.00;99.90;;;;;;5076132;28;20436;-63
2022/11/01 02:32:38;;;;;;;8.63;6.93;;;14.00;99.90;;;;;;5075743;28;20476;-63
2022/11/01 02:35:13;;;;;;;8.60;7.00;;;14.10;99.90;;;;;;5076204;28;20424;-62
2022/11/01 02:37:50;;;;;;;8.27;6.73;;;14.10;99.90;;;;;;5076054;28;20432;-62
2022/11/01 02:40:24;;;;;;;12.70;7.97;;;14.10;99.90;;;;;;5075985;28;20436;-62
2022/11/01 02:42:56;;;;;;;14.10;7.67;;;14.10;99.90;;;;;;5075128;28;20475;-63
2022/11/01 02:45:29;;;;;;;8.77;6.53;;;14.20;99.90;;;;;;5075455;28;20462;-62
2022/11/01 02:47:59;;;;;;;9.23;7.03;;;14.20;99.90;;;;;;5075943;28;20483;-62
2022/11/01 02:50:30;;;;;;;12.80;7.97;;;14.30;99.90;;;;;;5075460;28;20480;-62
2022/11/01 02:52:58;;;;;;;8.80;6.57;;;14.30;99.90;;;;;;5075583;28;20468;-62
2022/11/01 02:55:33;;;;;;;10.70;7.50;;;14.30;99.90;;;;;;5075589;28;20531;-62
2022/11/01 02:58:02;;;;;;;10.57;7.00;;;14.30;99.90;;;;;;5075385;28;20428;-62
2022/11/01 03:00:36;;;;;;;11.57;6.93;;;14.30;99.90;;;;;;5075600;28;20441;-63
2022/11/01 03:03:11;;;;;;;10.80;6.63;;;14.40;99.90;;;;;;5075218;28;20475;-62
2022/11/01 03:05:48;;;;;;;12.87;7.20;;;14.50;99.90;;;;;;5075139;28;20557;-62
2022/11/01 03:08:17;;;;;;;14.20;6.67;;;14.50;99.90;;;;;;5075351;28;20446;-62
2022/11/01 03:10:50;;;;;;;11.73;6.83;;;14.60;99.90;;;;;;5075328;28;20480;-63
2022/11/01 03:13:31;;;;;;;11.00;7.73;;;14.60;99.90;;;;;;5074925;28;20467;-63
2022/11/01 03:16:07;;;;;;;9.63;6.57;;;15.00;99.90;;;;;;5075171;28;20930;-63
2022/11/01 03:18:45;;;;;;;8.37;6.40;;;14.70;99.90;;;;;;5075205;28;20432;-62
2022/11/01 03:21:21;;;;;;;10.63;7.47;;;14.80;99.90;;;;;;5075110;28;20519;-62
2022/11/01 03:23:54;;;;;;;13.47;7.97;;;14.90;99.90;;;;;;5074920;28;20471;-62
2022/11/01 03:26:25;;;;;;;9.30;6.90;;;14.90;99.90;;;;;;5074896;28;20432;-62
2022/11/01 03:28:58;;;;;;;12.23;6.97;;;14.90;99.90;;;;;;5075030;28;20428;-62
2022/11/01 03:31:29;;;;;;;13.23;6.60;;;14.90;99.90;;;;;;5074523;28;20970;-63
2022/11/01 03:34:00;;;;;;;9.60;6.60;;;14.90;99.90;;;;;;5074869;28;20464;-63
2022/11/01 03:36:32;;;;;;;13.17;6.00;;;14.90;99.90;;;;;;5074879;28;20515;-62
2022/11/01 03:39:04;;;;;;;8.20;6.07;;;14.90;99.90;;;;;;5074797;28;20439;-62
2022/11/01 03:41:36;;;;;;;8.47;6.23;;;14.90;99.90;;;;;;5074749;28;20508;-62
2022/11/01 03:44:03;;;;;;;8.30;6.23;;;14.80;99.90;;;;;;5074221;28;20836;-61
2022/11/01 03:46:31;;;;;;;8.30;6.07;;;14.80;99.90;;;;;;5074676;28;20451;-62
2022/11/01 03:48:59;;;;;;;11.37;7.00;;;14.80;99.90;;;;;;5074598;28;20448;-62
2022/11/01 03:51:27;;;;;;;7.57;6.87;;;14.70;99.90;;;;;;5074474;28;20511;-62
2022/11/01 03:53:54;;;;;;;11.10;5.67;;;14.70;99.90;;;;;;5074537;28;20823;-62
2022/11/01 03:56:21;;;;;;;11.50;7.03;;;14.70;99.90;;;;;;5073954;28;20961;-62
2022/11/01 03:58:48;;;;;;;6.63;5.57;;;14.70;99.90;;;;;;5074388;28;20456;-63
2022/11/01 04:01:17;;;;;;;9.37;7.67;;;14.70;99.90;;;;;;5074147;28;20920;-63
2022/11/01 04:03:45;;;;;;;7.33;5.77;;;14.70;99.90;;;;;;5073653;28;21014;-62
2022/11/01 04:06:13;;;;;;;10.13;5.90;;;14.70;99.90;;;;;;5073840;28;20452;-62
2022/11/01 04:08:40;;;;;;;12.03;6.70;;;14.70;99.90;;;;;;5073898;28;20452;-63
2022/11/01 04:11:07;;;;;;;9.97;8.57;;;14.70;99.90;;;;;;5073904;28;20487;-62
2022/11/01 04:13:34;;;;;;;10.53;6.13;;;14.70;99.90;;;;;;5074050;28;20475;-62
2022/11/01 04:21:34;;;;;;;10.33;5.70;;;14.70;99.90;;;;;;5073779;28;20392;-63
2022/11/01 04:24:01;;;;;;;10.17;6.67;;;14.70;99.90;;;;;;5073693;28;20470;-62
2022/11/01 04:26:28;;;;;;;10.93;6.30;;;14.70;99.90;;;;;;5073809;28;20471;-63
2022/11/01 04:28:58;;;;;;;8.30;5.60;;;14.70;99.90;;;;;;5073833;28;20502;-62
2022/11/01 04:31:27;;;;;;;9.53;6.20;;;14.70;99.90;;;;;;5073480;28;21016;-63
2022/11/01 04:33:54;;;;;;;7.20;5.90;;;14.70;99.90;;;;;;5073704;28;20479;-63
2022/11/01 04:36:22;;;;;;;10.67;6.40;;;14.70;99.90;;;;;;5073675;28;20479;-63
2022/11/01 04:38:51;;;;;;;11.03;5.70;;;14.70;99.90;;;;;;5073706;28;20447;-62
2022/11/01 04:41:21;;;;;;;14.23;6.90;;;14.70;99.90;;;;;;5073650;28;20868;-62
2022/11/01 04:43:48;;;;;;;11.43;5.70;;;14.80;99.90;;;;;;5073658;28;20476;-62
2022/11/01 04:46:16;;;;;;;7.03;5.87;;;14.80;99.90;;;;;;5073635;28;20805;-63
2022/11/01 04:48:43;;;;;;;9.63;5.87;;;14.80;99.90;;;;;;5073258;28;20817;-62
2022/11/01 04:51:10;;;;;;;8.00;4.97;;;14.80;99.90;;;;;;5073468;28;20905;-61
2022/11/01 04:53:38;;;;;;;10.40;6.30;;;14.80;99.90;;;;;;5073318;28;20464;-62
2022/11/01 04:56:08;;;;;;;10.80;4.73;;;14.80;99.90;;;;;;5073474;28;20451;-62
2022/11/01 04:58:36;;;;;;;6.93;4.70;;;14.80;99.90;;;;;;5073241;28;20424;-63
2022/11/01 05:01:06;;;;;;;7.83;4.93;;;14.80;99.90;;;;;;5073475;28;20919;-62
2022/11/01 05:03:34;;;;;;;8.07;4.97;;;14.90;99.90;;;;;;5072877;28;20572;-62
2022/11/01 05:06:01;;;;;;;9.00;5.53;;;14.90;99.90;;;;;;5073015;28;20452;-62
2022/11/01 05:08:28;;;;;;;8.87;5.20;;;14.90;99.90;;;;;;5073212;28;20452;-61
2022/11/01 05:10:56;;;;;;;9.77;5.93;;;14.90;99.90;;;;;;5073087;28;21014;-62
2022/11/01 05:13:24;;;;;;;9.07;5.90;;;14.90;99.90;;;;;;5073259;28;20471;-63
2022/11/01 05:15:52;;;;;;;6.97;5.00;;;14.90;99.90;;;;;;5073564;28;20452;-63
2022/11/01 05:18:19;;;;;;;14.20;4.70;;;14.90;99.90;;;;;;5073405;28;20448;-63
2022/11/01 05:20:46;;;;;;;5.80;4.03;;;15.00;99.90;;;;;;5073033;28;20453;-62
2022/11/01 05:23:13;;;;;;;6.57;3.50;;;15.20;99.90;;;;;;5073115;28;20468;-62
2022/11/01 05:25:40;;;;;;;5.40;4.50;;;15.30;99.90;;;;;;5073235;28;20455;-62
2022/11/01 05:28:12;;;;;;;6.57;4.80;;;15.30;99.90;;;;;;5073275;28;20451;-62
2022/11/01 05:30:42;;;;;;;8.03;4.30;;;15.30;99.90;;;;;;5073354;28;20455;-62
2022/11/01 05:33:11;;;;;;;7.73;4.40;;;15.30;99.90;;;;;;5073175;28;20483;-63
2022/11/01 05:35:38;;;;;;;8.07;4.63;;;15.30;99.90;;;;;;5073027;28;20444;-62
2022/11/01 05:38:06;;;;;;;4.80;3.97;;;15.30;99.90;;;;;;5073255;28;20518;-62
2022/11/01 05:40:33;;;;;;;4.80;3.47;;;15.40;99.90;;;;;;5072704;28;20457;-62
2022/11/01 05:43:00;;;;;;;2.83;2.63;;;15.60;99.90;;;;;;5073031;28;20471;-61
2022/11/01 05:45:27;;;;;;;3.73;3.07;;;15.90;99.90;;;;;;5073158;28;20444;-62
2022/11/01 05:47:56;;;;;;;2.80;2.50;;;;;;;;;;5072988;28;20451;-61
2022/11/01 05:50:23;;;;;;;6.53;4.07;;;16.10;99.90;;;;;;5073092;28;20444;-62
2022/11/01 05:52:50;;;;;;;4.13;2.73;;;16.00;99.90;;;;;;5073397;28;20495;-62
2022/11/01 05:55:18;;;;;;;4.00;2.73;;;16.00;99.90;;;;;;5072907;28;20444;-62
2022/11/01 05:57:45;;;;;;;2.70;2.50;;;16.00;99.90;;;;;;5072984;28;20524;-62
2022/11/01 06:00:13;;;;;;;5.70;2.90;;;16.00;99.90;;;;;;5073056;28;20448;-62
2022/11/01 06:02:40;;;;;;;4.03;2.60;;;15.90;99.90;;;;;;5072464;28;20515;-62
2022/11/01 06:05:10;;;;;;;3.57;2.60;;;15.90;99.90;;;;;;5072367;28;20479;-62
2022/11/01 06:07:37;;;;;;;3.77;2.47;;;15.90;99.90;;;;;;5072899;28;20448;-62
2022/11/01 06:10:05;;;;;;;4.07;2.23;;;15.90;99.90;;;;;;5072723;28;20793;-62
2022/11/01 06:12:32;;;;;;;3.63;2.40;;;15.90;99.90;;;;;;5072326;28;20510;-62
2022/11/01 06:14:59;;;;;;;4.80;3.10;;;15.80;99.90;;;;;;5072824;28;20444;-62
2022/11/01 06:17:27;;;;;;;4.37;2.57;;;15.80;99.90;;;;;;5072526;28;20966;-62
2022/11/01 06:19:54;;;;;;;2.80;2.60;;;15.80;99.90;;;;;;5076324;28;20783;-62
2022/11/01 06:22:23;;;;;;;2.93;2.60;;;15.70;99.90;;;;;;5076290;28;20464;-62
2022/11/01 06:24:50;;;;;;;3.20;2.80;;;15.60;99.90;;;;;;5076197;28;20863;-62
2022/11/01 06:27:17;;;;;;;2.70;2.10;;;15.60;99.90;;;;;;5076136;28;20791;-61
2022/11/01 06:29:44;;;;;;;5.33;2.63;;;15.60;99.90;;;;;;5076244;28;20451;-62
2022/11/01 06:32:11;;;;;;;3.33;2.10;;;15.50;99.90;;;;;;5075493;28;21029;-62
2022/11/01 06:34:38;;;;;;;2.70;2.50;;;15.50;99.90;;;;;;5075720;28;20448;-62
2022/11/01 06:37:05;;;;;;;4.10;2.60;;;15.60;99.90;;;;;;5075718;28;20451;-61
2022/11/01 06:39:34;;;;;;;3.50;3.10;;;15.60;99.90;;;;;;5075926;28;20475;-61
2022/11/01 06:42:01;;;;;;;5.93;2.70;;;15.60;99.90;;;;;;5075750;28;20528;-62
2022/11/01 06:44:28;;;;;;;2.63;2.33;;;15.50;99.90;;;;;;5075703;28;20531;-62
2022/11/01 06:46:55;;;;;;;6.60;2.33;;;15.50;99.90;;;;;;5075953;28;20444;-61
2022/11/01 06:49:22;;;;;;;3.53;2.23;;;15.30;99.90;;;;;;5075725;28;20454;-61
2022/11/01 06:51:49;;;;;;;2.50;2.10;;;15.40;99.90;;;;;;5075570;28;20480;-60
2022/11/01 06:54:17;;;;;;;2.17;1.97;;;15.50;99.90;;;;;;5075491;28;20451;-61
2022/11/01 06:56:47;;;;;;;2.13;1.90;;;15.50;99.90;;;;;;5075594;28;20447;-61
2022/11/01 06:59:15;;;;;;;2.63;2.30;;;15.60;99.90;;;;;;5075704;28;20432;-62
2022/11/01 07:01:42;;;;;;;2.80;1.97;;;15.60;99.90;;;;;;5075512;28;20459;-61
2022/11/01 07:04:09;;;;;;;2.33;2.13;;;15.70;99.90;;;;;;5075170;28;20483;-61
2022/11/01 07:06:37;;;;;;;2.93;2.10;;;15.70;99.90;;;;;;5075427;28;20451;-62
2022/11/01 07:09:04;;;;;;;3.30;2.20;;;15.70;99.90;;;;;;5075526;28;20482;-62
2022/11/01 07:11:32;;;;;;;2.80;2.23;;;15.70;99.90;;;;;;5075025;28;20574;-62
2022/11/01 07:14:01;;;;;;;2.30;1.83;;;15.70;99.90;;;;;;5074959;28;20975;-61
2022/11/01 07:16:28;;;;;;;2.93;2.13;;;15.60;99.90;;;;;;5075409;28;20797;-61
2022/11/01 07:18:55;;;;;;;3.17;2.10;;;15.60;99.90;;;;;;5074788;28;20440;-62
2022/11/01 07:21:22;;;;;;;2.00;1.80;;;15.60;99.90;;;;;;5075176;28;20453;-62
2022/11/01 07:23:51;;;;;;;3.20;1.60;;;15.60;99.90;;;;;;5074898;28;20803;-61
2022/11/01 07:26:18;;;;;;;2.03;1.70;;;15.60;99.90;;;;;;5074761;28;20459;-61
2022/11/01 07:28:45;;;;;;;2.83;1.70;;;15.60;99.90;;;;;;5074703;28;20448;-61
2022/11/01 07:31:14;;;;;;;3.00;1.97;;;15.70;99.90;;;;;;5074440;28;20813;-60
2022/11/01 07:33:41;;;;;;;1.80;1.70;;;15.70;99.90;;;;;;5074608;28;20480;-61
2022/11/01 07:36:09;;;;;;;1.67;1.57;;;15.70;99.90;;;;;;5074480;28;20444;-61
2022/11/01 07:38:36;;;;;;;2.20;1.57;;;15.80;99.90;;;;;;5074827;28;20474;-61
2022/11/01 07:41:04;;;;;;;2.57;1.80;;;15.90;99.90;;;;;;5074564;28;20531;-62
2022/11/01 07:43:31;;;;;;;2.77;1.80;;;15.90;99.90;;;;;;5074654;28;20491;-61
2022/11/01 07:45:59;;;;;;;2.00;1.50;;;15.90;99.90;;;;;;5074644;28;20470;-61
2022/11/01 07:48:28;;;;;;;1.63;1.53;;;15.90;99.90;;;;;;5074790;28;20471;-61
2022/11/01 07:50:56;;;;;;;2.70;1.23;;;16.00;99.90;;;;;;5074233;28;20802;-62
2022/11/01 07:53:23;;;;;;;2.90;1.30;;;16.00;99.90;;;;;;5074365;28;20545;-62
2022/11/01 07:55:51;;;;;;;2.33;1.40;;;16.10;99.90;;;;;;5074503;28;20455;-62
2022/11/01 07:58:18;;;;;;;1.30;1.20;;;16.20;99.90;;;;;;5074476;28;20501;-62
2022/11/01 08:00:46;;;;;;;1.67;1.57;;;16.20;99.90;;;;;;5074319;28;20496;-61
2022/11/01 08:03:15;;;;;;;1.40;1.30;;;16.30;99.90;;;;;;5074268;28;20471;-62
2022/11/01 08:05:46;;;;;;;1.27;1.17;;;16.30;99.90;;;;;;5073907;28;20441;-62
2022/11/01 08:08:13;;;;;;;1.73;1.63;;;16.40;99.90;;;;;;5074267;28;20437;-61
2022/11/01 08:10:41;;;;;;;2.00;1.90;;;16.30;99.90;;;;;;5074150;28;20544;-62
2022/11/01 08:13:13;;;;;;;2.30;2.10;;;16.30;99.90;;;;;;5074096;28;20494;-62
2022/11/01 08:15:41;;;;;;;2.87;2.67;;;16.30;99.90;;;;;;5074129;28;20513;-62
2022/11/01 08:18:08;;;;;;;4.00;2.70;;;16.40;99.90;;;;;;5073827;28;20444;-63
2022/11/01 08:20:36;;;;;;;3.70;2.10;;;16.40;99.90;;;;;;5073953;28;20440;-63
2022/11/01 08:23:05;;;;;;;3.23;2.00;;;16.50;99.90;;;;;;5073558;28;20468;-62
2022/11/01 08:25:32;;;;;;;7.33;2.83;;;;;;;;;;5073874;28;20447;-63
2022/11/01 08:28:02;;;;;;;3.37;3.07;;;16.70;99.90;;;;;;5073673;28;20440;-62
2022/11/01 08:30:29;;;;;;;2.90;2.47;;;16.70;99.90;;;;;;5073863;28;20518;-62
2022/11/01 08:33:00;;;;;;;3.60;3.03;;;16.80;99.90;;;;;;5073312;28;20575;-62
2022/11/01 08:35:28;;;;;;;3.07;2.70;;;16.80;99.90;;;;;;5073685;28;20444;-62
2022/11/01 08:37:57;;;;;;;4.23;1.83;;;16.90;99.90;;;;;;5073315;28;20483;-62
2022/11/01 08:40:28;;;;;;;1.87;1.67;;;16.90;99.90;;;;;;5073631;28;20444;-62
2022/11/01 08:42:55;;;;;;;2.30;1.53;;;17.00;99.90;;;;;;5072750;28;20522;-62
2022/11/01 08:45:22;;;;;;;4.07;1.77;;;17.10;99.90;;;;;;5073601;28;20811;-62
2022/11/01 08:47:49;;;;;;;1.47;1.37;;;17.10;99.90;;;;;;5073209;28;20959;-61
2022/11/01 08:50:17;;;;;;;3.10;1.93;;;17.10;99.90;;;;;;5072883;28;20448;-61
2022/11/01 08:52:45;;;;;;;1.83;1.70;;;17.10;99.90;;;;;;5073383;28;20488;-62
2022/11/01 08:55:12;;;;;;;1.70;1.60;;;17.20;99.90;;;;;;5073263;28;20460;-62
2022/11/01 08:57:40;;;;;;;1.80;1.70;;;17.20;99.90;;;;;;5072455;28;20461;-64
2022/11/01 09:00:10;;;;;;;1.80;1.70;;;17.30;99.90;;;;;;5073270;28;20539;-62
2022/11/01 09:02:37;;;;;;;2.80;1.70;;;17.20;99.90;;;;;;5073224;28;21005;-63
2022/11/01 09:05:06;;;;;;;1.93;1.77;;;17.30;99.90;;;;;;5071723;28;21041;-63
2022/11/01 09:07:34;;;;;;;2.97;1.60;;;17.30;99.90;;;;;;5072985;28;20448;-63
2022/11/01 09:10:01;;;;;;;1.67;1.50;;;17.30;99.90;;;;;;5073284;28;20452;-62
2022/11/01 09:12:29;;;;;;;1.73;1.60;;;17.40;99.90;;;;;;5072979;28;20494;-63
2022/11/01 09:14:58;;;;;;;1.57;1.40;;;17.40;99.90;;;;;;5072801;28;20525;-63
2022/11/01 09:17:25;;;;;;;1.83;1.50;;;17.40;99.90;;;;;;5072650;28;20808;-63
2022/11/01 09:19:52;;;;;;;3.83;2.40;;;17.40;99.90;;;;;;5073306;28;20865;-63
2022/11/01 09:22:19;;;;;;;1.43;1.33;;;17.40;99.90;;;;;;5064151;28;20449;-63
2022/11/01 09:24:47;;;;;;;1.53;1.40;;;17.40;99.90;;;;;;5054489;28;20493;-63
2022/11/01 09:27:15;;;;;;;2.17;1.60;;;17.40;99.90;;;;;;5055179;28;21255;-63
2022/11/01 09:29:42;;;;;;;2.00;1.33;;;17.50;99.90;;;;;;5070643;28;20486;-63
2022/11/01 09:32:10;;;;;;;1.60;1.50;;;17.60;99.90;;;;;;5066406;28;20492;-62
2022/11/01 09:34:38;;;;;;;2.03;1.40;;;17.60;99.90;;;;;;5062844;28;20931;-63
2022/11/01 09:37:05;;;;;;;3.00;1.57;;;17.70;99.90;;;;;;5066528;28;20595;-62
2022/11/01 09:39:32;;;;;;;2.03;1.40;;;17.70;99.90;;;;;;5073068;28;20483;-63
2022/11/01 09:42:02;;;;;;;3.03;1.70;;;17.80;99.90;;;;;;5072801;28;20451;-64
2022/11/01 09:44:31;;;;;;;2.17;1.63;;;;;;;;;;5069167;28;20453;-62
2022/11/01 09:47:03;;;;;;;2.13;1.40;;;18.20;99.90;;;;;;5052923;28;20453;-61
2022/11/01 09:49:33;;;;;;;1.50;1.40;;;18.40;99.90;;;;;;5052682;28;20790;-62
2022/11/01 09:52:01;;;;;;;2.13;1.60;;;18.60;99.90;;;;;;5052548;28;20790;-63
2022/11/01 09:54:28;;;;;;;2.40;1.60;;;18.60;99.90;;;;;;5055953;28;20532;-61
2022/11/01 09:57:12;;;;;;;2.20;2.00;;;18.40;99.90;;;;;;5084117;28;20454;-62
2022/11/01 09:59:47;;;;;;;2.73;1.57;;;18.40;99.90;;;;;;5056406;28;20429;-62
2022/11/01 10:02:41;;;;;;;1.57;1.47;;;18.50;99.90;;;;;;5057375;28;20468;-62
2022/11/01 10:05:26;;;;;;;1.60;1.50;;;18.80;99.90;;;;;;5076241;28;20559;-62
2022/11/01 10:08:02;;;;;;;3.97;1.50;;;19.00;99.90;;;;;;5075960;28;20452;-62
2022/11/01 10:10:37;;;;;;;1.57;1.33;;;19.20;99.90;;;;;;5076592;28;20852;-63
2022/11/01 10:13:16;;;;;;;1.30;1.20;;;19.50;99.90;;;;;;5076166;28;20483;-63
2022/11/01 10:15:51;;;;;;;1.77;1.40;;;;;;;;;;5075523;28;20454;-62
2022/11/01 10:18:26;;;;;;;1.60;1.30;;;19.50;99.90;;;;;;5075737;28;20509;-63
2022/11/01 10:20:56;;;;;;;1.83;1.53;;;19.50;99.90;;;;;;5076227;28;20436;-62
2022/11/01 10:23:34;;;;;;;2.13;1.50;;;19.40;99.90;;;;;;5076009;28;20471;-62
2022/11/01 10:26:02;;;;;;;2.07;1.80;;;19.30;99.90;;;;;;5075656;28;20436;-61
2022/11/01 10:28:42;;;;;;;1.90;1.37;;;19.30;99.90;;;;;;5076007;28;20458;-61
2022/11/01 10:31:15;;;;;;;2.33;1.40;;;19.40;99.90;;;;;;5076020;28;20436;-61
2022/11/01 10:33:48;;;;;;;1.60;1.30;;;19.50;99.90;;;;;;5066645;28;20492;-62
2022/11/01 10:36:21;;;;;;;1.93;1.50;;;19.50;99.90;;;;;;5055411;28;20459;-61
2022/11/01 10:38:50;;;;;;;2.70;1.67;;;19.60;99.90;;;;;;5054834;28;20437;-62
2022/11/01 10:41:24;;;;;;;2.43;1.50;;;20.00;99.90;;;;;;5058619;28;20974;-61
2022/11/01 10:43:55;;;;;;;1.57;1.47;;;20.20;99.90;;;;;;5055477;28;20461;-65
2022/11/01 10:46:26;;;;;;;1.80;1.50;;;20.00;99.90;;;;;;5055291;28;20488;-64
2022/11/01 10:48:57;;;;;;;1.40;1.30;;;19.90;99.90;;;;;;5052178;28;20448;-62
2022/11/01 10:51:28;;;;;;;2.57;1.70;;;19.70;99.90;;;;;;5053178;28;20461;-63
2022/11/01 10:53:59;;;;;;;1.83;1.63;;;19.80;99.90;;;;;;5055145;28;20968;-62
2022/11/01 10:56:31;;;;;;;1.80;1.53;;;19.80;99.90;;;;;;5055531;28;20472;-61
2022/11/01 10:59:02;;;;;;;1.60;1.50;;;19.90;99.90;;;;;;5055437;28;20797;-62
2022/11/01 11:01:36;;;;;;;2.27;1.53;;;19.90;99.90;;;;;;5052894;28;20968;-62
2022/11/01 11:04:09;;;;;;;1.83;1.33;;;19.70;99.90;;;;;;5086892;28;20471;-62
2022/11/01 11:06:39;;;;;;;1.67;1.30;;;19.70;99.90;;;;;;5064861;28;20665;-61
2022/11/01 11:09:07;;;;;;;1.80;1.57;;;19.60;99.90;;;;;;5054679;28;20940;-61
2022/11/01 11:11:37;;;;;;;2.73;1.40;;;19.50;99.90;;;;;;5053696;28;20455;-62
2022/11/01 11:14:07;;;;;;;2.67;1.83;;;19.50;99.90;;;;;;5062819;28;20542;-61
2022/11/01 11:16:39;;;;;;;4.47;1.80;;;19.40;99.90;;;;;;5054796;28;20487;-62
2022/11/01 11:19:18;;;;;;;1.73;1.50;;;19.50;99.90;;;;;;5055113;28;20437;-62
2022/11/01 11:21:48;;;;;;;2.60;1.70;;;19.40;99.90;;;;;;5054675;28;20433;-62
2022/11/01 11:24:18;;;;;;;1.53;1.40;;;19.50;99.90;;;;;;5054956;28;20487;-63
2022/11/01 11:26:47;;;;;;;3.33;1.50;;;19.80;99.90;;;;;;5054695;28;20456;-63
2022/11/01 11:29:27;;;;;;;3.73;1.77;;;19.90;99.90;;;;;;5054848;28;20845;-61
2022/11/01 11:31:58;;;;;;;2.83;1.70;;;19.80;99.90;;;;;;5068831;28;20451;-62
2022/11/01 11:34:29;;;;;;;3.20;1.90;;;19.70;99.90;;;;;;5095004;28;20894;-62
2022/11/01 11:36:58;;;;;;;2.30;1.67;;;19.80;99.90;;;;;;5094986;28;20453;-62
2022/11/01 11:39:27;;;;;;;1.67;1.57;;;19.60;99.90;;;;;;5095004;28;20450;-62
2022/11/01 11:41:55;;;;;;;4.03;1.60;;;19.50;99.90;;;;;;5094451;28;20934;-61
2022/11/01 11:44:43;;;;;;;2.53;1.63;;;19.40;99.90;;;;;;5094380;28;20964;-61
2022/11/01 11:47:23;;;;;;;3.87;1.83;;;19.30;99.90;;;;;;5090930;28;20438;-65
2022/11/01 11:49:53;;;;;;;2.67;1.77;;;19.20;99.90;;;;;;5066028;28;20528;-67
2022/11/01 11:52:26;;;;;;;2.17;1.77;;;19.30;99.90;;;;;;5054294;28;21000;-63
2022/11/01 11:54:53;;;;;;;2.47;1.60;;;19.40;99.90;;;;;;5069963;28;20433;-63
2022/11/01 11:57:23;;;;;;;1.67;1.53;;;19.30;99.90;;;;;;5065324;28;20435;-63
2022/11/01 11:59:54;;;;;;;2.30;1.70;;;19.40;99.90;;;;;;5074030;28;20431;-62
2022/11/01 12:02:24;;;;;;;2.90;1.97;;;19.30;99.90;;;;;;5066147;28;20554;-61
2022/11/01 12:05:00;;;;;;;2.33;1.50;;;19.30;99.90;;;;;;5073302;28;20496;-61
2022/11/01 12:07:34;;;;;;;1.70;1.50;;;19.20;99.90;;;;;;5073691;28;20440;-61
2022/11/01 12:10:04;;;;;;;2.60;1.50;;;19.20;99.90;;;;;;5073666;28;20428;-61
2022/11/01 12:12:34;;;;;;;4.17;2.00;;;19.20;99.90;;;;;;5072723;28;20478;-62
2022/11/01 12:15:02;;;;;;;2.73;2.00;;;19.10;99.90;;;;;;5073417;28;20502;-62
2022/11/01 12:17:33;;;;;;;2.63;1.70;;;19.10;99.90;;;;;;5073887;28;20444;-61
2022/11/01 12:20:14;;;;;;;1.77;1.60;;;19.00;99.90;;;;;;5073612;28;20912;-60
2022/11/01 12:22:47;;;;;;;3.93;1.90;;;19.10;99.90;;;;;;5073477;28;20815;-61
2022/11/01 12:25:17;;;;;;;5.27;2.10;;;19.10;99.90;;;;;;5062626;28;20441;-63
2022/11/01 12:27:52;;;;;;;4.43;1.93;;;18.90;99.90;;;;;;5070067;28;20440;-63
2022/11/01 12:30:21;;;;;;;3.57;2.23;;;18.80;99.90;;;;;;5071642;28;20436;-61
2022/11/01 12:32:51;;;;;;;2.77;2.50;;;18.40;99.90;;;;;;5073279;28;20476;-63
2022/11/01 12:35:23;;;;;;;4.50;2.30;;;;;;;;;;5074070;28;20451;-62
2022/11/01 12:38:02;;;;;;;6.13;2.63;;;17.90;99.90;;;;;;5073421;28;20429;-62
2022/11/01 12:40:33;;;;;;;8.50;3.03;;;17.90;99.90;;;;;;5073540;28;20439;-62
2022/11/01 12:43:04;;;;;;;5.17;3.30;;;17.90;99.90;;;;;;5073212;28;20543;-62
2022/11/01 12:45:37;;;;;;;4.87;3.00;;;18.00;99.90;;;;;;5073956;28;20444;-62
2022/11/01 12:48:09;;;;;;;6.00;2.73;;;18.00;99.90;;;;;;5073472;28;20444;-62
2022/11/01 12:50:43;;;;;;;6.40;3.00;;;17.80;99.90;;;;;;5073121;28;20919;-62
2022/11/01 12:53:17;;;;;;;4.73;2.80;;;17.80;99.90;;;;;;5073389;28;20492;-62
2022/11/01 12:55:45;;;;;;;5.07;2.13;;;17.70;99.90;;;;;;5073711;28;20439;-62
2022/11/01 12:58:16;;;;;;;3.87;2.70;;;17.60;99.90;;;;;;5073333;28;20510;-63
2022/11/01 13:00:59;;;;;;;7.87;2.60;;;17.60;99.90;;;;;;5072985;28;20891;-62
2022/11/01 13:03:38;;;;;;;6.60;4.33;;;17.60;99.90;;;;;;5073163;28;20492;-62
2022/11/01 13:06:17;;;;;;;5.60;2.60;;;17.60;99.90;;;;;;5073323;28;20777;-62